createdAt,value
2023-09-12T00:01:14.365Z,49.34
2023-09-12T00:03:42.206Z,49.38
2023-09-12T00:06:09.720Z,49.54
2023-09-12T00:08:37.177Z,49.54
2023-09-12T00:11:07.667Z,49.88
2023-09-12T00:13:35.129Z,49.71
2023-09-12T00:16:03.035Z,49.58
2023-09-12T00:18:31.023Z,49.57
2023-09-12T00:21:00.596Z,49.55
2023-09-12T00:23:28.700Z,49.49
2023-09-12T00:25:56.454Z,49.79
2023-09-12T00:28:23.896Z,49.48
2023-09-12T00:30:53.268Z,49.83
2023-09-12T00:33:21.287Z,49.99
2023-09-12T00:35:48.826Z,50.25
2023-09-12T00:38:16.337Z,50.33
2023-09-12T00:40:44.092Z,50.24
2023-09-12T00:43:12.026Z,50.26
2023-09-12T00:45:39.818Z,50.50
2023-09-12T00:48:08.530Z,50.63
2023-09-12T00:50:36.493Z,51.00
2023-09-12T00:53:04.653Z,51.03
2023-09-12T00:55:34.166Z,51.35
2023-09-12T00:58:02.444Z,51.05
2023-09-12T01:00:30.216Z,50.93
2023-09-12T01:02:58.568Z,50.80
2023-09-12T01:05:26.159Z,51.04
2023-09-12T01:07:53.894Z,51.50
2023-09-12T01:10:21.654Z,51.52
2023-09-12T01:12:49.149Z,51.85
2023-09-12T01:15:17.719Z,51.69
2023-09-12T01:17:46.466Z,51.49
2023-09-12T01:20:17.581Z,51.36
2023-09-12T01:22:48.370Z,51.33
2023-09-12T01:25:40.478Z,51.44
2023-09-12T01:28:10.631Z,50.94
2023-09-12T01:30:40.551Z,51.03
2023-09-12T01:33:09.200Z,50.68
2023-09-12T01:35:36.709Z,50.85
2023-09-12T01:38:04.409Z,51.03
2023-09-12T01:40:52.246Z,51.02
2023-09-12T01:43:23.066Z,51.42
2023-09-12T01:45:56.514Z,51.52
2023-09-12T01:48:28.047Z,51.49
2023-09-12T01:50:55.961Z,51.52
2023-09-12T01:53:23.739Z,51.16
2023-09-12T01:55:51.319Z,51.78
2023-09-12T01:58:19.185Z,51.96
2023-09-12T02:00:46.705Z,51.98
2023-09-12T02:03:14.748Z,51.83
2023-09-12T02:05:42.398Z,52.32
2023-09-12T02:08:09.919Z,52.19
2023-09-12T02:10:37.716Z,52.23
2023-09-12T02:13:05.213Z,52.32
2023-09-12T02:15:32.886Z,52.39
2023-09-12T02:18:01.071Z,52.74
2023-09-12T02:20:28.922Z,52.67
2023-09-12T02:22:56.501Z,52.74
2023-09-12T02:25:23.948Z,52.73
2023-09-12T02:27:51.738Z,52.78
2023-09-12T02:30:19.570Z,52.80
2023-09-12T02:32:47.121Z,52.95
2023-09-12T02:35:15.053Z,53.00
2023-09-12T02:37:42.830Z,52.87
2023-09-12T02:40:13.055Z,52.92
2023-09-12T02:42:40.996Z,52.92
2023-09-12T02:45:08.921Z,52.96
2023-09-12T02:47:36.919Z,53.13
2023-09-12T02:50:05.549Z,53.14
2023-09-12T02:52:33.212Z,53.29
2023-09-12T02:55:00.772Z,53.46
2023-09-12T02:57:28.560Z,53.43
2023-09-12T02:59:56.234Z,53.58
2023-09-12T03:02:23.827Z,53.61
2023-09-12T03:04:52.250Z,53.72
2023-09-12T03:07:19.672Z,53.65
2023-09-12T03:09:51.469Z,53.88
2023-09-12T03:12:19.258Z,53.74
2023-09-12T03:14:46.711Z,53.96
2023-09-12T03:17:14.531Z,54.05
2023-09-12T03:19:42.249Z,54.28
2023-09-12T03:22:09.954Z,53.95
2023-09-12T03:24:37.422Z,53.93
2023-09-12T03:27:05.368Z,53.90
2023-09-12T03:29:34.295Z,53.99
2023-09-12T03:32:01.865Z,54.03
2023-09-12T03:34:29.681Z,53.97
2023-09-12T03:36:57.109Z,53.63
2023-09-12T03:39:24.570Z,53.67
2023-09-12T03:41:52.360Z,53.83
2023-09-12T03:44:19.977Z,53.81
2023-09-12T03:46:47.555Z,54.29
2023-09-12T03:49:15.325Z,53.98
2023-09-12T03:51:42.846Z,53.95
2023-09-12T03:54:10.431Z,53.63
2023-09-12T03:56:38.406Z,53.61
2023-09-12T03:59:06.625Z,53.68
2023-09-12T04:01:34.146Z,54.09
2023-09-12T04:04:04.174Z,54.30
2023-09-12T04:06:32.193Z,54.32
2023-09-12T04:08:59.767Z,54.46
2023-09-12T04:11:35.770Z,54.34
2023-09-12T04:14:07.560Z,54.23
2023-09-12T04:16:35.447Z,54.58
2023-09-12T04:19:04.390Z,54.77
2023-09-12T04:21:32.166Z,54.66
2023-09-12T04:24:01.112Z,54.48
2023-09-12T04:26:28.613Z,54.59
2023-09-12T04:28:56.142Z,54.38
2023-09-12T04:31:24.037Z,54.28
2023-09-12T04:33:54.830Z,54.45
2023-09-12T04:36:23.795Z,54.51
2023-09-12T04:38:51.620Z,54.63
2023-09-12T04:41:19.173Z,54.41
2023-09-12T04:43:46.678Z,54.45
2023-09-12T04:46:14.886Z,54.70
2023-09-12T04:48:42.725Z,54.46
2023-09-12T04:51:10.613Z,54.23
2023-09-12T04:53:38.440Z,53.88
2023-09-12T04:56:07.577Z,53.66
2023-09-12T04:58:35.138Z,53.26
2023-09-12T05:01:03.614Z,52.99
2023-09-12T05:03:31.263Z,52.50
2023-09-12T05:05:59.335Z,52.10
2023-09-12T05:08:27.237Z,52.01
2023-09-12T05:10:54.886Z,52.05
2023-09-12T05:13:22.521Z,51.81
2023-09-12T05:15:50.617Z,51.35
2023-09-12T05:18:18.524Z,50.99
2023-09-12T05:20:46.440Z,50.62
2023-09-12T05:23:14.161Z,50.25
2023-09-12T05:25:41.771Z,50.13
2023-09-12T05:28:09.364Z,50.09
2023-09-12T05:30:37.445Z,50.17
2023-09-12T05:33:05.233Z,49.88
2023-09-12T05:35:33.325Z,49.73
2023-09-12T05:38:01.089Z,50.20
2023-09-12T05:40:28.555Z,50.30
2023-09-12T05:42:56.059Z,50.44
2023-09-12T05:45:24.593Z,51.01
2023-09-12T05:47:53.145Z,50.75
2023-09-12T05:50:20.743Z,50.69
2023-09-12T05:52:48.725Z,51.12
2023-09-12T05:55:16.767Z,51.34
2023-09-12T05:57:44.572Z,51.57
2023-09-12T06:00:13.331Z,51.85
2023-09-12T06:02:43.356Z,52.72
2023-09-12T06:05:10.989Z,52.97
2023-09-12T06:07:41.970Z,51.90
2023-09-12T06:10:12.717Z,52.76
2023-09-12T06:12:40.210Z,51.79
2023-09-12T06:15:08.065Z,51.46
2023-09-12T06:17:35.930Z,51.44
2023-09-12T06:20:07.459Z,51.30
2023-09-12T06:22:35.267Z,50.83
2023-09-12T06:25:03.070Z,51.45
2023-09-12T06:27:31.981Z,51.47
2023-09-12T06:29:59.527Z,50.50
2023-09-12T06:32:27.324Z,50.61
2023-09-12T06:34:54.835Z,49.86
2023-09-12T06:37:22.330Z,48.55
2023-09-12T06:39:51.958Z,48.30
2023-09-12T06:42:20.030Z,48.93
2023-09-12T06:44:47.499Z,50.26
2023-09-12T06:47:15.249Z,49.67
2023-09-12T06:49:42.784Z,50.34
2023-09-12T06:52:10.893Z,50.84
2023-09-12T06:54:38.847Z,50.72
2023-09-12T06:57:06.342Z,50.56
2023-09-12T06:59:34.050Z,51.15
2023-09-12T07:02:01.844Z,50.78
2023-09-12T07:04:29.341Z,50.79
2023-09-12T07:06:56.862Z,50.38
2023-09-12T07:09:25.812Z,49.21
2023-09-12T07:11:53.508Z,49.94
2023-09-12T07:14:21.965Z,50.83
2023-09-12T07:16:49.658Z,50.97
2023-09-12T07:19:17.173Z,50.64
2023-09-12T07:21:44.698Z,51.04
2023-09-12T07:24:12.582Z,48.49
2023-09-12T07:26:40.171Z,49.14
2023-09-12T07:29:08.298Z,49.10
2023-09-12T07:31:36.196Z,48.98
2023-09-12T07:34:05.008Z,48.83
2023-09-12T07:36:34.314Z,49.67
2023-09-12T07:39:02.144Z,49.17
2023-09-12T07:41:30.031Z,48.19
2023-09-12T07:43:57.528Z,46.94
2023-09-12T07:46:25.398Z,46.74
2023-09-12T07:48:53.893Z,46.34
2023-09-12T07:51:21.522Z,46.94
2023-09-12T07:53:49.543Z,45.84
2023-09-12T07:56:16.985Z,45.00
2023-09-12T07:58:44.415Z,44.71
2023-09-12T08:01:12.216Z,45.58
2023-09-12T08:03:41.423Z,44.88
2023-09-12T08:06:09.777Z,44.64
2023-09-12T08:08:37.250Z,45.18
2023-09-12T08:11:05.098Z,44.01
2023-09-12T08:13:32.560Z,44.16
2023-09-12T08:16:00.530Z,42.97
2023-09-12T08:18:30.824Z,42.73
2023-09-12T08:20:58.702Z,41.46
2023-09-12T08:23:26.312Z,40.28
2023-09-12T08:25:54.097Z,39.20
2023-09-12T08:28:21.558Z,40.50
2023-09-12T08:30:49.160Z,40.06
2023-09-12T08:33:17.096Z,39.42
2023-09-12T08:35:44.684Z,38.25
2023-09-12T08:38:13.053Z,39.61
2023-09-12T08:40:41.727Z,38.85
2023-09-12T08:43:09.722Z,38.86
2023-09-12T08:45:37.318Z,39.64
2023-09-12T08:48:05.865Z,38.54
2023-09-12T08:50:35.260Z,38.31
2023-09-12T08:53:07.102Z,37.50
2023-09-12T08:55:37.689Z,38.20
2023-09-12T08:58:06.511Z,37.74
2023-09-12T09:00:35.080Z,37.45
2023-09-12T09:03:04.137Z,37.63
2023-09-12T09:05:32.052Z,37.71
2023-09-12T09:08:00.263Z,39.28
2023-09-12T09:10:46.771Z,37.68
2023-09-12T09:13:17.505Z,37.49
2023-09-12T09:15:45.309Z,37.91
2023-09-12T09:18:13.874Z,37.12
2023-09-12T09:20:42.608Z,36.58
2023-09-12T09:23:11.883Z,37.67
2023-09-12T09:25:44.448Z,38.67
2023-09-12T09:28:20.871Z,34.13
2023-09-12T09:30:50.310Z,33.80
2023-09-12T09:33:18.293Z,32.97
2023-09-12T09:35:50.250Z,34.07
2023-09-12T09:38:20.827Z,34.20
2023-09-12T09:40:49.305Z,33.70
2023-09-12T09:43:23.802Z,31.90
2023-09-12T09:45:51.944Z,33.67
2023-09-12T09:48:24.062Z,32.46
2023-09-12T09:50:53.812Z,32.48
2023-09-12T09:53:27.784Z,33.43
2023-09-12T09:56:12.647Z,33.72
2023-09-12T09:58:48.338Z,32.98
2023-09-12T10:01:24.778Z,31.48
2023-09-12T10:03:52.715Z,32.35
2023-09-12T10:06:21.101Z,32.76
2023-09-12T10:08:53.021Z,31.88
2023-09-12T10:11:24.136Z,32.15
2023-09-12T10:13:56.883Z,33.48
2023-09-12T10:16:32.729Z,31.50
2023-09-12T10:19:28.165Z,31.67
2023-09-12T10:21:59.037Z,32.49
2023-09-12T10:24:28.808Z,32.64
2023-09-12T10:26:57.068Z,30.93
2023-09-12T10:29:24.526Z,31.72
2023-09-12T10:31:52.463Z,32.47
2023-09-12T10:34:21.431Z,33.99
2023-09-12T10:36:49.168Z,30.71
2023-09-12T10:39:16.913Z,30.12
2023-09-12T10:41:44.718Z,29.60
2023-09-12T10:44:15.473Z,31.31
2023-09-12T10:46:43.823Z,28.90
2023-09-12T10:49:13.073Z,28.76
2023-09-12T10:51:41.814Z,29.22
2023-09-12T10:54:10.909Z,29.73
2023-09-12T10:56:38.606Z,31.36
2023-09-12T10:59:05.989Z,28.84
2023-09-12T11:01:34.822Z,29.80
2023-09-12T11:04:21.217Z,28.65
2023-09-12T11:06:49.198Z,29.75
2023-09-12T11:09:26.466Z,29.48
2023-09-12T11:12:04.114Z,27.51
2023-09-12T11:14:33.281Z,26.47
2023-09-12T11:17:10.038Z,26.85
2023-09-12T11:19:50.612Z,27.50
2023-09-12T11:22:25.257Z,27.09
2023-09-12T11:24:53.722Z,26.03
2023-09-12T11:27:21.353Z,26.15
2023-09-12T11:29:49.102Z,27.67
2023-09-12T11:32:32.950Z,27.14
2023-09-12T11:35:01.246Z,26.60
2023-09-12T11:37:30.867Z,26.43
2023-09-12T11:40:01.238Z,26.49
2023-09-12T11:42:29.097Z,28.86
2023-09-12T11:44:57.027Z,26.98
2023-09-12T11:47:24.581Z,26.36
2023-09-12T11:49:52.432Z,26.42
2023-09-12T11:52:21.320Z,25.98
2023-09-12T11:54:49.531Z,26.29
2023-09-12T11:57:17.747Z,24.95
2023-09-12T11:59:46.431Z,26.01
2023-09-12T12:02:14.940Z,25.36
2023-09-12T12:04:43.080Z,27.58
2023-09-12T12:07:11.865Z,25.95
2023-09-12T12:09:39.953Z,25.87
2023-09-12T12:12:15.195Z,26.51
2023-09-12T12:14:42.986Z,25.89
2023-09-12T12:17:11.466Z,27.59
2023-09-12T12:19:39.957Z,26.29
2023-09-12T12:22:08.882Z,27.08
2023-09-12T12:24:46.748Z,25.45
2023-09-12T12:27:17.529Z,26.45
2023-09-12T12:29:46.656Z,26.08
2023-09-12T12:32:17.078Z,26.30
2023-09-12T12:35:10.622Z,25.62
2023-09-12T12:37:38.328Z,24.57
2023-09-12T12:40:07.131Z,25.98
2023-09-12T12:42:48.263Z,26.14
2023-09-12T12:45:23.302Z,24.85
2023-09-12T12:47:59.550Z,26.90
2023-09-12T12:50:27.870Z,25.85
2023-09-12T12:52:55.388Z,26.01
2023-09-12T12:55:23.005Z,26.51
2023-09-12T12:57:50.769Z,25.24
2023-09-12T13:00:20.120Z,25.96
2023-09-12T13:02:47.806Z,27.07
2023-09-12T13:05:29.725Z,25.35
2023-09-12T13:07:57.350Z,25.69
2023-09-12T13:10:25.220Z,24.52
2023-09-12T13:12:52.833Z,25.98
2023-09-12T13:15:20.380Z,25.20
2023-09-12T13:17:48.170Z,25.43
2023-09-12T13:20:15.675Z,25.46
2023-09-12T13:22:44.527Z,25.07
2023-09-12T13:25:12.427Z,25.40
2023-09-12T13:27:40.024Z,25.49
2023-09-12T13:30:08.100Z,25.65
2023-09-12T13:32:35.953Z,26.89
2023-09-12T13:35:03.995Z,27.76
2023-09-12T13:37:32.039Z,25.45
2023-09-12T13:40:00.144Z,27.65
2023-09-12T13:42:32.107Z,27.49
2023-09-12T13:44:59.970Z,24.86
2023-09-12T13:47:27.445Z,25.42
2023-09-12T13:49:54.958Z,25.48
2023-09-12T13:52:22.789Z,25.50
2023-09-12T13:54:50.367Z,24.75
2023-09-12T13:57:18.104Z,25.03
2023-09-12T13:59:46.874Z,25.21
2023-09-12T14:02:15.008Z,25.97
2023-09-12T14:04:44.227Z,24.18
2023-09-12T14:07:12.468Z,26.58
2023-09-12T14:09:41.135Z,27.76
2023-09-12T14:12:21.125Z,24.10
2023-09-12T14:15:04.451Z,26.10
2023-09-12T14:17:36.594Z,24.44
2023-09-12T14:20:05.165Z,24.49
2023-09-12T14:22:33.239Z,24.68
2023-09-12T14:25:03.137Z,25.15
2023-09-12T14:27:34.254Z,24.73
2023-09-12T14:30:04.624Z,24.94
2023-09-12T14:32:33.058Z,25.83
2023-09-12T14:35:00.773Z,25.66
2023-09-12T14:37:29.669Z,24.77
2023-09-12T14:39:57.772Z,25.72
2023-09-12T14:42:26.619Z,25.58
2023-09-12T14:44:54.407Z,27.98
2023-09-12T14:47:22.997Z,29.17
2023-09-12T14:49:52.495Z,29.06
2023-09-12T14:52:26.974Z,29.41
2023-09-12T14:54:56.316Z,29.58
2023-09-12T14:57:25.376Z,26.77
2023-09-12T14:59:53.573Z,27.79
2023-09-12T15:02:21.734Z,28.11
2023-09-12T15:04:51.040Z,28.57
2023-09-12T15:07:19.279Z,28.91
2023-09-12T15:09:47.575Z,28.35
2023-09-12T15:12:16.246Z,27.36
2023-09-12T15:14:44.289Z,27.90
2023-09-12T15:17:12.237Z,26.81
2023-09-12T15:19:40.329Z,29.60
2023-09-12T15:22:08.183Z,30.18
2023-09-12T15:24:35.900Z,30.57
2023-09-12T15:27:04.645Z,29.89
2023-09-12T15:29:32.615Z,29.92
2023-09-12T15:32:01.553Z,31.03
2023-09-12T15:34:29.483Z,30.77
2023-09-12T15:39:43.694Z,31.32
2023-09-12T15:42:24.770Z,31.71
2023-09-12T15:45:02.670Z,31.19
2023-09-12T15:47:32.469Z,32.05
2023-09-12T15:50:01.673Z,31.95
2023-09-12T15:52:29.780Z,31.97
2023-09-12T15:54:57.890Z,32.25
2023-09-12T15:57:26.130Z,32.19
2023-09-12T15:59:54.045Z,32.15
2023-09-12T16:02:22.197Z,32.35
2023-09-12T16:04:50.318Z,32.42
2023-09-12T16:07:18.945Z,32.41
2023-09-12T16:09:48.521Z,32.95
2023-09-12T16:12:16.598Z,32.51
2023-09-12T16:14:44.459Z,32.63
2023-09-12T16:17:12.229Z,32.51
2023-09-12T16:19:40.733Z,33.04
2023-09-12T16:22:11.075Z,32.88
2023-09-12T16:24:39.319Z,33.54
2023-09-12T16:27:08.211Z,33.93
2023-09-12T16:29:37.531Z,34.18
2023-09-12T16:32:06.247Z,34.26
2023-09-12T16:34:36.093Z,34.87
2023-09-12T16:37:04.174Z,34.78
2023-09-12T16:39:35.490Z,34.94
2023-09-12T16:42:04.622Z,34.89
2023-09-12T16:44:32.532Z,35.17
2023-09-12T16:47:00.577Z,35.42
2023-09-12T16:49:29.505Z,35.50
2023-09-12T16:51:58.573Z,35.42
2023-09-12T16:54:28.571Z,35.52
2023-09-12T16:56:58.640Z,35.68
2023-09-12T16:59:26.543Z,35.88
2023-09-12T17:01:54.765Z,35.74
2023-09-12T17:04:23.026Z,35.93
2023-09-12T17:06:50.971Z,35.84
2023-09-12T17:09:19.890Z,36.03
2023-09-12T17:11:49.266Z,35.97
2023-09-12T17:14:17.820Z,36.02
2023-09-12T17:16:46.565Z,36.34
2023-09-12T17:19:15.244Z,36.20
2023-09-12T17:21:43.381Z,36.61
2023-09-12T17:24:16.823Z,36.60
2023-09-12T17:26:44.883Z,36.61
2023-09-12T17:29:13.583Z,36.67
2023-09-12T17:31:41.994Z,36.93
2023-09-12T17:34:10.299Z,36.86
2023-09-12T17:36:45.093Z,36.63
2023-09-12T17:39:17.450Z,36.79
2023-09-12T17:41:46.668Z,36.88
2023-09-12T17:44:14.126Z,36.90
2023-09-12T17:46:42.310Z,37.21
2023-09-12T17:49:11.940Z,37.19
2023-09-12T17:51:43.930Z,37.23
2023-09-12T17:54:12.099Z,37.24
2023-09-12T17:56:41.989Z,37.14
2023-09-12T17:59:13.035Z,37.54
2023-09-12T18:01:44.512Z,37.27
2023-09-12T18:04:14.866Z,37.18
2023-09-12T18:06:46.998Z,37.52
2023-09-12T18:09:15.311Z,37.44
2023-09-12T18:11:42.824Z,37.23
2023-09-12T18:14:12.366Z,37.25
2023-09-12T18:16:41.039Z,37.45
2023-09-12T18:19:11.375Z,37.53
2023-09-12T18:21:39.254Z,37.39
2023-09-12T18:24:09.362Z,37.55
2023-09-12T18:26:38.994Z,37.18
2023-09-12T18:29:10.585Z,37.25
2023-09-12T18:31:40.973Z,37.00
2023-09-12T18:34:11.376Z,37.49
2023-09-12T18:36:42.868Z,37.25
2023-09-12T18:39:12.422Z,37.40
2023-09-12T18:41:41.604Z,37.43
2023-09-12T18:44:16.967Z,37.46
2023-09-12T18:46:45.596Z,37.80
2023-09-12T18:49:16.952Z,38.10
2023-09-12T18:51:45.547Z,37.91
2023-09-12T18:54:21.380Z,37.51
2023-09-12T18:56:51.627Z,37.79
2023-09-12T18:59:22.692Z,38.05
2023-09-12T19:01:52.698Z,38.24
2023-09-12T19:04:27.292Z,37.99
2023-09-12T19:06:59.731Z,38.00
2023-09-12T19:09:28.628Z,38.16
2023-09-12T19:11:57.260Z,38.47
2023-09-12T19:14:27.696Z,38.53
2023-09-12T19:16:56.552Z,38.61
2023-09-12T19:19:25.689Z,38.39
2023-09-12T19:21:58.370Z,38.67
2023-09-12T19:24:27.892Z,38.79
2023-09-12T19:26:56.833Z,38.55
2023-09-12T19:29:26.458Z,39.04
2023-09-12T19:31:55.803Z,38.87
2023-09-12T19:34:26.544Z,38.88
2023-09-12T19:36:56.555Z,38.85
2023-09-12T19:39:26.438Z,39.16
2023-09-12T19:41:56.610Z,39.17
2023-09-12T19:44:25.330Z,39.17
2023-09-12T19:46:53.877Z,39.53
2023-09-12T19:49:25.069Z,39.76
2023-09-12T19:51:54.305Z,39.64
2023-09-12T19:54:24.520Z,39.73
2023-09-12T19:56:54.114Z,39.77
2023-09-12T19:59:25.460Z,39.84
2023-09-12T20:01:56.983Z,40.25
2023-09-12T20:04:33.396Z,39.96
2023-09-12T20:07:06.577Z,40.22
2023-09-12T20:09:36.014Z,40.59
2023-09-12T20:12:04.508Z,40.91
2023-09-12T20:14:32.298Z,40.68
2023-09-12T20:17:00.875Z,40.36
2023-09-12T20:19:30.796Z,40.86
2023-09-12T20:21:58.549Z,40.48
2023-09-12T20:24:28.250Z,40.46
2023-09-12T20:26:56.528Z,40.55
2023-09-12T20:29:24.249Z,40.82
2023-09-12T20:31:52.521Z,41.23
2023-09-12T20:34:21.294Z,40.82
2023-09-12T20:36:50.750Z,41.66
2023-09-12T20:39:26.745Z,41.62
2023-09-12T20:42:07.531Z,41.40
2023-09-12T20:44:36.385Z,41.24
2023-09-12T20:47:04.614Z,41.47
2023-09-12T20:49:33.011Z,41.84
2023-09-12T20:52:02.750Z,41.15
2023-09-12T20:54:30.960Z,41.28
2023-09-12T20:56:58.643Z,41.40
2023-09-12T20:59:27.037Z,41.52
2023-09-12T21:01:54.943Z,41.60
2023-09-12T21:04:22.464Z,41.42
2023-09-12T21:06:50.265Z,41.65
2023-09-12T21:09:17.866Z,41.61
2023-09-12T21:11:46.503Z,41.69
2023-09-12T21:14:15.185Z,42.25
2023-09-12T21:16:42.756Z,42.77
2023-09-12T21:19:10.368Z,42.46
2023-09-12T21:21:38.176Z,42.36
2023-09-12T21:24:05.762Z,42.30
2023-09-12T21:26:33.195Z,42.25
2023-09-12T21:29:00.915Z,42.12
2023-09-12T21:31:28.491Z,42.03
2023-09-12T21:33:56.027Z,42.00
2023-09-12T21:36:24.910Z,42.39
2023-09-12T21:38:52.350Z,42.28
2023-09-12T21:41:19.817Z,42.04
2023-09-12T21:43:47.552Z,42.06
2023-09-12T21:46:15.162Z,42.21
2023-09-12T21:48:42.667Z,42.06
2023-09-12T21:51:11.919Z,41.79
2023-09-12T21:53:39.570Z,41.74
2023-09-12T21:56:07.042Z,42.00
2023-09-12T21:58:34.897Z,42.06
2023-09-12T22:01:02.460Z,41.59
2023-09-12T22:03:30.308Z,42.03
2023-09-12T22:05:57.792Z,42.35
2023-09-12T22:08:25.199Z,41.71
2023-09-12T22:10:52.902Z,41.49
2023-09-12T22:13:20.291Z,41.59
2023-09-12T22:15:47.936Z,41.44
2023-09-12T22:18:15.729Z,41.54
2023-09-12T22:20:43.136Z,41.48
2023-09-12T22:23:11.512Z,41.97
2023-09-12T22:25:39.230Z,42.25
2023-09-12T22:28:06.781Z,42.13
2023-09-12T22:30:34.270Z,42.00
2023-09-12T22:33:02.029Z,41.82
2023-09-12T22:35:29.514Z,41.79
2023-09-12T22:37:57.325Z,41.94
2023-09-12T22:40:25.006Z,41.99
2023-09-12T22:42:52.487Z,42.22
2023-09-12T22:45:19.932Z,42.64
2023-09-12T22:47:47.765Z,42.94
2023-09-12T22:50:15.211Z,43.64
2023-09-12T22:52:42.633Z,43.64
2023-09-12T22:55:10.397Z,43.78
2023-09-12T22:57:39.310Z,43.54
2023-09-12T23:00:09.673Z,43.60
2023-09-12T23:02:38.069Z,43.67
2023-09-12T23:05:06.107Z,44.16
2023-09-12T23:07:35.326Z,44.15
2023-09-12T23:10:04.774Z,43.76
2023-09-12T23:12:32.348Z,43.45
2023-09-12T23:14:59.919Z,43.65
2023-09-12T23:17:27.602Z,43.74
2023-09-12T23:19:55.112Z,43.76
2023-09-12T23:22:22.917Z,43.69
2023-09-12T23:24:50.683Z,43.57
2023-09-12T23:27:18.237Z,43.62
2023-09-12T23:29:46.074Z,43.72
2023-09-12T23:32:13.717Z,43.90
2023-09-12T23:34:41.327Z,43.69
2023-09-12T23:37:08.826Z,43.64
2023-09-12T23:39:36.813Z,43.81
2023-09-12T23:42:04.406Z,43.94
2023-09-12T23:44:33.390Z,44.10
2023-09-12T23:47:01.406Z,44.24
2023-09-12T23:49:28.978Z,44.25
2023-09-12T23:51:56.468Z,44.11
2023-09-12T23:54:26.332Z,44.13
2023-09-12T23:56:53.831Z,44.28
2023-09-12T23:59:21.269Z,44.35
